Time;durP1;ratioP1;P1;durP2;ratioP2;P2;SDS_P1;SDS_P2;PMS_P1;PMS_P2;Temp;Humidity;BMP_temperature;BMP_pressure;BME280_temperature;BME280_humidity;BME280_pressure;Samples;Min_cycle;Max_cycle;Signal;HPM_P1;HPM_P2
2021/04/01 04:11:07;;;;;;;0.75;0.75;;;10.70;97.70;;;;;;5707060;23;20483;-74
2021/04/01 04:13:39;;;;;;;0.50;0.50;;;10.60;97.80;;;;;;4916587;29;20202;-72
2021/04/01 04:16:06;;;;;;;0.73;0.73;;;10.50;98.00;;;;;;4916101;29;20202;-74
2021/04/01 04:18:33;;;;;;;0.70;0.70;;;10.50;98.10;;;;;;4916327;29;20262;-72
2021/04/01 04:21:00;;;;;;;0.80;0.80;;;10.40;98.20;;;;;;4909734;29;20576;-72
2021/04/01 04:23:27;;;;;;;0.70;0.70;;;10.40;98.20;;;;;;4897468;29;20215;-72
2021/04/01 04:25:57;;;;;;;0.70;0.70;;;10.40;98.00;;;;;;4897642;29;20287;-72
2021/04/01 04:28:34;;;;;;;0.70;0.70;;;10.40;98.20;;;;;;4897188;29;20207;-72
2021/04/01 04:31:02;;;;;;;0.77;0.77;;;10.40;98.00;;;;;;4897191;29;20227;-73
2021/04/01 04:33:30;;;;;;;0.70;0.70;;;10.50;98.20;;;;;;4897280;29;20208;-73
2021/04/01 04:35:57;;;;;;;0.60;0.60;;;10.50;98.10;;;;;;4897271;29;20214;-73
2021/04/01 04:38:24;;;;;;;0.77;0.77;;;10.60;97.90;;;;;;4897334;29;20214;-73
2021/04/01 04:40:55;;;;;;;0.70;0.70;;;10.60;97.70;;;;;;4897158;29;20287;-73
2021/04/01 04:43:23;;;;;;;0.70;0.70;;;10.60;97.50;;;;;;4897059;29;20207;-74
2021/04/01 04:45:50;;;;;;;0.70;0.70;;;10.70;97.60;;;;;;4895996;29;20223;-73
2021/04/01 04:48:17;;;;;;;0.60;0.60;;;10.70;97.60;;;;;;4896987;29;20263;-73
2021/04/01 04:50:45;;;;;;;0.60;0.60;;;10.70;97.50;;;;;;4897097;29;20279;-73
2021/04/01 04:53:12;;;;;;;0.70;0.70;;;10.60;97.40;;;;;;4897319;29;20561;-72
2021/04/01 04:55:41;;;;;;;0.60;0.60;;;10.50;97.70;;;;;;4896902;29;20239;-72
2021/04/01 04:58:12;;;;;;;0.70;0.70;;;10.60;97.80;;;;;;4895863;29;20255;-72
2021/04/01 05:00:57;;;;;;;0.60;0.60;;;10.60;97.80;;;;;;4896502;29;20582;-72
2021/04/01 05:06:08;;;;;;;0.70;0.70;;;10.60;97.80;;;;;;4895618;29;20223;-74
2021/04/01 05:08:35;;;;;;;0.73;0.73;;;10.60;97.70;;;;;;4904535;29;20211;-74
2021/04/01 05:11:02;;;;;;;0.70;0.70;;;10.70;97.50;;;;;;4899426;29;20235;-76
2021/04/01 05:13:29;;;;;;;0.70;0.70;;;10.60;97.50;;;;;;4896842;29;20217;-75
2021/04/01 05:15:57;;;;;;;0.60;0.60;;;10.70;97.50;;;;;;4896772;29;20251;-79
2021/04/01 05:18:25;;;;;;;0.75;0.75;;;10.80;97.70;;;;;;4897665;29;20215;-74
2021/04/01 05:20:53;;;;;;;0.77;0.77;;;10.70;97.50;;;;;;4896146;29;20238;-75
2021/04/01 05:23:30;;;;;;;0.70;0.70;;;10.80;97.80;;;;;;4895877;29;20204;-76
2021/04/01 05:28:45;;;;;;;0.70;0.70;;;10.90;97.10;;;;;;4895558;29;20207;-77
2021/04/01 05:31:26;;;;;;;0.60;0.60;;;10.80;97.30;;;;;;4895335;29;20227;-81
2021/04/01 05:33:54;;;;;;;0.70;0.70;;;11.00;97.50;;;;;;4895427;29;20204;-75
2021/04/01 05:36:23;;;;;;;0.60;0.60;;;11.10;97.30;;;;;;4895502;29;20203;-75
2021/04/01 05:38:52;;;;;;;0.60;0.60;;;11.10;97.00;;;;;;4895447;29;20262;-75
2021/04/01 05:41:22;;;;;;;0.60;0.60;;;11.30;96.70;;;;;;4895500;29;20725;-75
2021/04/01 05:43:52;;;;;;;0.60;0.60;;;11.30;96.30;;;;;;4892077;29;20224;-75
2021/04/01 05:46:21;;;;;;;0.70;0.70;;;11.50;96.30;;;;;;4895100;29;20644;-75
2021/04/01 05:49:10;;;;;;;0.60;0.60;;;11.40;96.50;;;;;;4895730;29;20673;-75
2021/04/01 05:52:08;;;;;;;0.60;0.60;;;11.40;96.20;;;;;;4895605;29;20231;-76
2021/04/01 05:57:44;;;;;;;0.60;0.60;;;11.60;96.20;;;;;;4897225;29;20656;-76
2021/04/01 06:00:47;;;;;;;0.60;0.60;;;11.90;99.90;;;;;;4899575;29;20211;-76
2021/04/01 06:06:07;;;;;;;0.60;0.60;;;12.00;95.60;;;;;;4897671;29;20296;-76
2021/04/01 06:08:40;;;;;;;0.60;0.60;;;12.20;95.30;;;;;;4899376;29;20244;-75
2021/04/01 06:11:07;;;;;;;0.50;0.50;;;12.30;94.60;;;;;;4898566;29;20254;-74
2021/04/01 06:13:44;;;;;;;0.60;0.60;;;12.50;94.10;;;;;;4897575;29;20211;-74
2021/04/01 06:16:13;;;;;;;0.50;0.50;;;12.60;93.70;;;;;;4898875;29;20734;-73
2021/04/01 06:18:48;;;;;;;0.50;0.50;;;12.70;93.10;;;;;;4898975;29;20207;-73
2021/04/01 06:21:20;;;;;;;0.60;0.60;;;12.90;92.70;;;;;;4899191;29;20282;-74
2021/04/01 06:23:57;;;;;;;0.60;0.60;;;13.00;92.40;;;;;;4900398;29;20266;-74
2021/04/01 06:26:28;;;;;;;0.57;0.57;;;13.10;92.20;;;;;;4896869;29;20254;-75
2021/04/01 06:28:59;;;;;;;0.60;0.60;;;13.30;92.20;;;;;;4896925;29;20251;-75
2021/04/01 06:31:30;;;;;;;0.50;0.50;;;13.40;91.60;;;;;;4895970;29;20279;-75
2021/04/01 06:34:00;;;;;;;0.70;0.70;;;13.50;91.40;;;;;;4896607;29;20672;-76
2021/04/01 06:36:30;;;;;;;0.60;0.60;;;13.40;91.20;;;;;;4897280;29;20226;-76
2021/04/01 06:38:57;;;;;;;0.50;0.50;;;13.60;91.50;;;;;;4896895;29;20258;-75
2021/04/01 06:41:28;;;;;;;0.50;0.50;;;13.70;91.00;;;;;;4897167;29;20335;-75
2021/04/01 06:44:07;;;;;;;0.40;0.40;;;13.90;91.00;;;;;;4898285;29;20282;-75
2021/04/01 06:46:43;;;;;;;0.40;0.40;;;14.10;90.70;;;;;;4898196;29;20577;-75
2021/04/01 06:49:38;;;;;;;0.40;0.40;;;14.20;90.50;;;;;;4898533;29;20207;-75
2021/04/01 06:52:18;;;;;;;0.50;0.50;;;;;;;;;;4898126;29;20716;-75
2021/04/01 06:54:58;;;;;;;0.50;0.50;;;14.70;88.90;;;;;;4898109;29;20610;-76
2021/04/01 06:57:34;;;;;;;0.50;0.50;;;14.80;89.20;;;;;;4898553;29;20203;-76
2021/04/01 07:00:46;;;;;;;0.40;0.40;;;15.10;99.90;;;;;;4898396;29;20214;-75
2021/04/01 07:03:22;;;;;;;0.50;0.50;;;15.00;88.20;;;;;;4898025;29;20681;-75
2021/04/01 07:05:53;;;;;;;0.40;0.40;;;15.00;87.50;;;;;;4898060;29;20302;-75
2021/04/01 07:08:40;;;;;;;0.55;0.55;;;15.10;87.70;;;;;;4897895;29;20211;-75
2021/04/01 07:11:09;;;;;;;0.50;0.50;;;15.10;87.30;;;;;;4897459;29;20235;-76
2021/04/01 07:13:42;;;;;;;0.40;0.40;;;15.10;87.40;;;;;;4897705;29;20215;-75
2021/04/01 07:16:16;;;;;;;0.50;0.50;;;15.20;87.70;;;;;;4897829;29;20207;-76
2021/04/01 07:18:58;;;;;;;0.50;0.50;;;15.20;87.50;;;;;;4897874;29;20210;-76
2021/04/01 07:34:32;;;;;;;0.40;0.40;;;15.30;99.90;;;;;;4897416;29;20283;-75
2021/04/01 07:36:03;;;;;;;0.50;0.50;;;15.30;86.50;;;;;;4897224;29;20211;-76
2021/04/01 07:47:02;;;;;;;0.50;0.50;;;15.90;84.50;;;;;;4897353;29;20227;-75
2021/04/01 07:49:30;;;;;;;0.40;0.40;;;;;;;;;;4897283;29;20249;-76
2021/04/01 07:52:02;;;;;;;0.50;0.50;;;16.00;83.70;;;;;;4897453;29;20275;-75
2021/04/01 07:54:34;;;;;;;0.40;0.40;;;;;;;;;;4897093;29;20242;-75
2021/04/01 07:57:24;;;;;;;0.40;0.40;;;16.50;99.90;;;;;;4896917;29;20256;-75
2021/04/01 08:00:00;;;;;;;0.40;0.40;;;;;;;;;;4896878;29;20207;-76
2021/04/01 08:02:44;;;;;;;0.30;0.30;;;;;;;;;;4897094;29;20231;-75
2021/04/01 08:05:14;;;;;;;0.40;0.40;;;;;;;;;;4896599;29;20251;-75
2021/04/01 08:07:54;;;;;;;0.30;0.30;;;17.30;99.90;;;;;;4896796;29;20274;-75
2021/04/01 08:10:26;;;;;;;0.32;0.32;;;17.50;99.90;;;;;;4896479;29;20285;-75
2021/04/01 08:13:00;;;;;;;0.50;0.50;;;17.50;98.50;;;;;;4896769;29;20672;-75
2021/04/01 08:15:32;;;;;;;0.40;0.40;;;;;;;;;;4896708;29;20207;-75
2021/04/01 08:18:08;;;;;;;0.30;0.30;;;;;;;;;;4896815;29;20290;-75
2021/04/01 08:20:36;;;;;;;0.30;0.30;;;17.50;99.90;;;;;;4896121;29;20286;-75
2021/04/01 08:23:29;;;;;;;0.30;0.30;;;17.70;99.90;;;;;;4896771;29;20207;-75
2021/04/01 08:26:23;;;;;;;0.30;0.30;;;;;;;;;;4895944;29;20652;-75
2021/04/01 08:29:46;;;;;;;0.30;0.30;;;;;;;;;;4896626;29;20577;-75
2021/04/01 08:33:06;;;;;;;0.30;0.30;;;17.90;89.70;;;;;;4896371;29;20720;-75
2021/04/01 08:35:56;;;;;;;0.35;0.35;;;17.90;75.60;;;;;;4895942;29;20267;-75
2021/04/01 08:38:45;;;;;;;0.30;0.30;;;18.10;75.30;;;;;;4896293;29;20291;-75
2021/04/01 08:41:56;;;;;;;0.40;0.40;;;18.20;75.80;;;;;;4896370;29;20229;-75
2021/04/01 08:45:16;;;;;;;0.30;0.30;;;18.20;74.40;;;;;;4896096;29;20672;-74
2021/04/01 08:48:20;;;;;;;0.38;0.38;;;18.20;75.30;;;;;;4896400;29;20227;-75
2021/04/01 08:50:58;;;;;;;0.30;0.30;;;18.20;75.70;;;;;;4896293;29;20234;-75
2021/04/01 08:53:56;;;;;;;0.30;0.30;;;18.10;76.60;;;;;;4896478;29;20637;-75
2021/04/01 08:56:31;;;;;;;0.30;0.30;;;18.10;75.40;;;;;;4896276;29;20263;-75
2021/04/01 08:59:12;;;;;;;0.30;0.30;;;18.80;93.90;;;;;;4896502;29;20211;-74
2021/04/01 09:01:41;;;;;;;0.30;0.30;;;18.50;74.00;;;;;;4896308;29;20247;-76
2021/04/01 09:04:11;;;;;;;0.30;0.30;;;;;;;;;;4896317;29;20292;-76
2021/04/01 09:06:41;;;;;;;0.30;0.30;;;;;;;;;;4896326;29;20258;-76
2021/04/01 09:09:13;;;;;;;0.30;0.30;;;18.80;99.90;;;;;;4896426;29;20267;-76
2021/04/01 09:11:50;;;;;;;0.40;0.40;;;;;;;;;;4895892;29;20780;-76
2021/04/01 09:14:29;;;;;;;0.30;0.30;;;;;;;;;;4896178;29;20211;-76
2021/04/01 09:17:06;;;;;;;0.30;0.30;;;;;;;;;;4895839;29;20265;-76
2021/04/01 09:19:35;;;;;;;0.30;0.30;;;;;;;;;;4896178;29;20206;-76
2021/04/01 09:22:04;;;;;;;0.30;0.30;;;;;;;;;;4896077;29;20230;-76
2021/04/01 09:24:33;;;;;;;0.30;0.30;;;19.60;97.60;;;;;;4895928;29;20214;-76
2021/04/01 09:27:01;;;;;;;0.30;0.30;;;19.10;69.50;;;;;;4895990;29;20227;-76
2021/04/01 09:29:38;;;;;;;0.40;0.40;;;;;;;;;;4895808;29;20259;-76
2021/04/01 09:32:07;;;;;;;0.20;0.20;;;19.30;98.90;;;;;;4897295;29;20235;-76
2021/04/01 09:34:36;;;;;;;0.20;0.20;;;19.30;99.80;;;;;;4901360;29;20207;-76
2021/04/01 09:37:11;;;;;;;0.30;0.30;;;19.20;99.50;;;;;;4900004;29;20214;-76
2021/04/01 09:39:39;;;;;;;0.20;0.20;;;;;;;;;;4899306;29;20250;-76
2021/04/01 09:42:09;;;;;;;0.30;0.30;;;19.50;99.90;;;;;;4899628;29;20252;-76
2021/04/01 09:44:48;;;;;;;0.30;0.30;;;19.60;94.00;;;;;;4899570;29;20633;-76
2021/04/01 09:47:24;;;;;;;0.30;0.30;;;19.60;94.40;;;;;;4899531;29;20227;-76
2021/04/01 09:49:54;;;;;;;0.22;0.22;;;19.50;95.20;;;;;;4899599;29;20206;-76
2021/04/01 09:52:26;;;;;;;0.30;0.30;;;19.50;95.40;;;;;;4899467;29;20286;-76
2021/04/01 09:54:57;;;;;;;0.30;0.30;;;;;;;;;;4898961;29;20310;-76
2021/04/01 09:57:39;;;;;;;0.25;0.25;;;19.70;90.00;;;;;;4899138;29;20256;-75
2021/04/01 10:00:11;;;;;;;0.30;0.30;;;19.80;90.00;;;;;;4899998;29;20211;-75
2021/04/01 10:02:41;;;;;;;0.30;0.30;;;19.90;90.30;;;;;;4898965;29;20207;-76
2021/04/01 10:05:11;;;;;;;0.30;0.30;;;20.10;62.30;;;;;;4898832;29;20218;-75
2021/04/01 10:07:53;;;;;;;0.20;0.20;;;20.30;60.80;;;;;;4899462;29;20234;-75
2021/04/01 10:10:34;;;;;;;0.20;0.20;;;20.40;91.20;;;;;;4899495;29;20219;-74
2021/04/01 10:13:01;;;;;;;0.20;0.20;;;20.40;61.60;;;;;;4898946;29;20207;-74
2021/04/01 10:15:29;;;;;;;0.20;0.20;;;20.40;61.60;;;;;;4898914;29;20689;-74
2021/04/01 10:17:58;;;;;;;0.20;0.20;;;20.40;62.00;;;;;;4899579;29;20346;-76
2021/04/01 10:20:26;;;;;;;0.30;0.30;;;20.40;62.40;;;;;;4899176;29;20215;-74
2021/04/01 10:23:04;;;;;;;0.30;0.30;;;20.40;61.20;;;;;;4898866;29;20239;-75
2021/04/01 10:25:37;;;;;;;0.25;0.25;;;20.40;61.40;;;;;;4898973;29;20203;-75
2021/04/01 10:28:12;;;;;;;0.20;0.20;;;20.30;61.60;;;;;;4898786;29;20227;-75
2021/04/01 10:30:39;;;;;;;0.30;0.30;;;;;;;;;;4898754;29;20713;-74
2021/04/01 10:33:13;;;;;;;0.20;0.20;;;20.70;97.70;;;;;;4898738;29;20211;-74
2021/04/01 10:35:48;;;;;;;0.20;0.20;;;20.80;99.90;;;;;;4898369;29;20211;-74
2021/04/01 10:38:15;;;;;;;0.20;0.20;;;20.90;60.90;;;;;;4898469;29;20527;-74
2021/04/01 10:40:47;;;;;;;0.30;0.30;;;20.90;62.10;;;;;;4898488;29;20314;-74
2021/04/01 10:43:18;;;;;;;0.20;0.20;;;21.00;61.80;;;;;;4898551;29;20215;-74
2021/04/01 10:45:46;;;;;;;0.30;0.30;;;20.90;62.20;;;;;;4898255;29;20223;-75
2021/04/01 10:48:22;;;;;;;0.20;0.20;;;20.70;61.90;;;;;;4898285;29;20239;-74
2021/04/01 10:50:51;;;;;;;0.20;0.20;;;20.80;61.80;;;;;;4898040;29;20235;-74
2021/04/01 10:53:20;;;;;;;0.20;0.20;;;20.90;61.90;;;;;;4898149;29;20211;-74
2021/04/01 10:55:47;;;;;;;0.30;0.30;;;21.00;60.50;;;;;;4897906;29;20243;-74
2021/04/01 10:58:15;;;;;;;0.20;0.20;;;20.80;60.80;;;;;;4898219;29;20235;-74
2021/04/01 11:00:52;;;;;;;0.20;0.20;;;20.50;61.60;;;;;;4898058;29;20231;-74
2021/04/01 11:03:23;;;;;;;0.30;0.30;;;20.70;61.60;;;;;;4898016;29;20211;-75
2021/04/01 11:05:52;;;;;;;0.20;0.20;;;20.90;60.50;;;;;;4897714;29;20632;-73
2021/04/01 11:08:21;;;;;;;0.30;0.30;;;21.00;61.20;;;;;;4897996;29;20231;-76
2021/04/01 11:10:57;;;;;;;0.30;0.30;;;21.10;60.70;;;;;;4897652;29;20420;-76
2021/04/01 11:13:32;;;;;;;0.20;0.20;;;21.10;61.30;;;;;;4897887;29;20211;-75
2021/04/01 11:16:02;;;;;;;0.20;0.20;;;21.20;60.30;;;;;;4898067;29;20215;-75
2021/04/01 11:18:31;;;;;;;0.20;0.20;;;21.20;60.20;;;;;;4897906;29;20649;-74
2021/04/01 11:21:00;;;;;;;0.20;0.20;;;21.10;61.50;;;;;;4897518;29;20238;-76
2021/04/01 11:23:28;;;;;;;0.20;0.20;;;21.20;60.20;;;;;;4897702;29;20207;-75
2021/04/01 11:25:57;;;;;;;0.20;0.20;;;21.60;60.70;;;;;;4897397;29;20215;-76
2021/04/01 11:28:33;;;;;;;0.20;0.20;;;21.60;60.00;;;;;;4897613;29;20227;-76
2021/04/01 11:31:01;;;;;;;0.20;0.20;;;21.70;59.70;;;;;;4897819;29;20277;-74
2021/04/01 11:33:29;;;;;;;0.20;0.20;;;21.70;59.90;;;;;;4898009;29;20203;-75
2021/04/01 11:36:05;;;;;;;0.20;0.20;;;21.70;59.50;;;;;;4897483;29;20207;-74
2021/04/01 11:38:38;;;;;;;0.30;0.30;;;21.80;60.00;;;;;;4897453;29;20211;-74
2021/04/01 11:41:08;;;;;;;0.20;0.20;;;21.80;58.80;;;;;;4897525;29;20647;-74
2021/04/01 11:43:36;;;;;;;0.20;0.20;;;21.90;57.30;;;;;;4897722;29;20211;-74
2021/04/01 11:46:13;;;;;;;0.30;0.30;;;22.00;56.70;;;;;;4897340;29;20207;-75
2021/04/01 11:48:41;;;;;;;0.20;0.20;;;22.20;56.90;;;;;;4897279;29;20259;-75
2021/04/01 11:51:15;;;;;;;0.20;0.20;;;22.50;56.30;;;;;;4896938;29;20234;-75
2021/04/01 11:53:42;;;;;;;0.30;0.30;;;22.10;57.00;;;;;;4897421;29;20207;-75
2021/04/01 11:56:09;;;;;;;0.20;0.20;;;22.10;57.20;;;;;;4896497;29;20207;-75
2021/04/01 11:58:35;;;;;;;0.20;0.20;;;22.20;57.20;;;;;;4895371;29;20704;-75
2021/04/01 12:01:10;;;;;;;0.20;0.20;;;22.50;57.10;;;;;;4897082;29;20231;-74
2021/04/01 12:03:52;;;;;;;0.20;0.20;;;22.30;57.30;;;;;;4896803;29;20226;-75
2021/04/01 12:06:22;;;;;;;0.20;0.20;;;22.30;57.80;;;;;;4896952;29;20277;-75
2021/04/01 12:08:49;;;;;;;0.20;0.20;;;22.10;57.50;;;;;;4896890;29;20227;-75
2021/04/01 12:11:16;;;;;;;0.20;0.20;;;21.70;58.30;;;;;;4896690;29;20284;-74
2021/04/01 12:13:43;;;;;;;0.20;0.20;;;21.60;57.90;;;;;;4896774;29;20211;-75
2021/04/01 12:16:22;;;;;;;0.20;0.20;;;21.40;57.50;;;;;;4896442;29;20214;-75
2021/04/01 12:18:50;;;;;;;0.20;0.20;;;21.40;58.40;;;;;;4896932;29;20276;-75
2021/04/01 12:21:19;;;;;;;0.20;0.20;;;21.40;59.00;;;;;;4896506;29;20772;-75
2021/04/01 12:23:48;;;;;;;0.20;0.20;;;21.20;59.20;;;;;;4896555;29;20239;-75
2021/04/01 12:26:15;;;;;;;0.30;0.30;;;21.00;59.00;;;;;;4896418;29;20721;-75
2021/04/01 12:28:42;;;;;;;0.20;0.20;;;21.00;60.00;;;;;;4896247;29;20705;-75
2021/04/01 12:31:15;;;;;;;0.30;0.30;;;21.10;59.00;;;;;;4896439;29;20611;-75
2021/04/01 12:33:49;;;;;;;0.20;0.20;;;21.20;59.50;;;;;;4896400;29;20665;-75
2021/04/01 12:36:17;;;;;;;0.20;0.20;;;21.60;58.60;;;;;;4896142;29;20707;-75
2021/04/01 12:38:46;;;;;;;0.20;0.20;;;22.00;57.80;;;;;;4896663;29;20250;-75
2021/04/01 12:41:27;;;;;;;0.20;0.20;;;22.00;57.10;;;;;;4896362;29;20231;-75
2021/04/01 12:43:55;;;;;;;0.30;0.30;;;22.10;57.80;;;;;;4896485;29;20211;-75
2021/04/01 12:46:22;;;;;;;0.20;0.20;;;22.30;56.80;;;;;;4896594;29;20234;-74
2021/04/01 12:48:51;;;;;;;0.20;0.20;;;22.50;57.20;;;;;;4896376;29;20231;-74
2021/04/01 12:51:20;;;;;;;0.20;0.20;;;23.00;56.90;;;;;;4896431;29;20728;-75
2021/04/01 12:54:03;;;;;;;0.20;0.20;;;22.90;55.70;;;;;;4896936;29;20211;-74
2021/04/01 12:56:34;;;;;;;0.20;0.20;;;23.00;54.40;;;;;;4896286;29;20257;-75
2021/04/01 12:59:02;;;;;;;0.20;0.20;;;23.30;55.10;;;;;;4896408;29;20211;-76
2021/04/01 13:01:32;;;;;;;0.20;0.20;;;23.20;55.40;;;;;;4896580;29;20635;-75
2021/04/01 13:04:03;;;;;;;0.20;0.20;;;23.30;54.30;;;;;;4896117;29;20211;-75
2021/04/01 13:06:39;;;;;;;0.20;0.20;;;23.30;53.60;;;;;;4895892;29;20211;-75
2021/04/01 13:09:31;;;;;;;0.10;0.10;;;23.40;52.30;;;;;;4899989;29;20294;-75
2021/04/01 13:12:09;;;;;;;0.20;0.20;;;23.10;51.50;;;;;;4899879;29;20290;-75
2021/04/01 13:14:35;;;;;;;0.10;0.10;;;23.30;52.60;;;;;;4899950;29;20207;-75
2021/04/01 13:17:02;;;;;;;0.20;0.20;;;23.40;53.10;;;;;;4899958;29;20207;-75
2021/04/01 13:19:29;;;;;;;0.20;0.20;;;23.10;53.40;;;;;;4899974;29;20207;-75
2021/04/01 13:22:08;;;;;;;0.20;0.20;;;22.90;54.70;;;;;;4900542;29;20720;-76
2021/04/01 13:24:53;;;;;;;0.20;0.20;;;23.00;52.90;;;;;;4900433;29;20266;-76
2021/04/01 13:27:24;;;;;;;0.20;0.20;;;23.10;53.00;;;;;;4899873;29;20275;-76
2021/04/01 13:29:54;;;;;;;0.10;0.10;;;23.40;51.80;;;;;;4899932;29;20204;-75
2021/04/01 13:32:29;;;;;;;0.20;0.20;;;23.60;52.20;;;;;;4899887;29;20296;-76
2021/04/01 13:34:59;;;;;;;0.17;0.17;;;23.80;52.00;;;;;;4899463;29;20283;-75
2021/04/01 13:37:30;;;;;;;0.20;0.20;;;24.00;51.40;;;;;;4899468;29;20207;-75
2021/04/01 13:40:01;;;;;;;0.20;0.20;;;23.90;51.10;;;;;;4899796;29;20215;-75
2021/04/01 13:42:30;;;;;;;0.20;0.20;;;23.70;51.00;;;;;;4899507;29;20780;-75
2021/04/01 13:45:00;;;;;;;0.20;0.20;;;23.60;51.60;;;;;;4899532;29;20258;-75
2021/04/01 13:47:28;;;;;;;0.20;0.20;;;;;;;;;;4899520;29;20223;-75
2021/04/01 13:49:57;;;;;;;0.20;0.20;;;23.60;51.30;;;;;;4899470;29;20208;-75
2021/04/01 13:52:28;;;;;;;0.20;0.20;;;23.70;51.60;;;;;;4899464;29;20236;-75
2021/04/01 13:55:02;;;;;;;0.10;0.10;;;;;;;;;;4899153;29;20213;-75
2021/04/01 13:57:57;;;;;;;0.20;0.20;;;24.00;51.60;;;;;;4899471;29;20203;-75
2021/04/01 14:00:30;;;;;;;0.10;0.10;;;23.80;70.50;;;;;;4899215;29;20255;-75
2021/04/01 14:08:58;;;;;;;0.10;0.10;;;23.40;51.90;;;;;;4898938;29;20647;-75
2021/04/01 14:11:28;;;;;;;0.17;0.17;;;22.90;52.40;;;;;;4899153;29;20235;-75
2021/04/01 14:13:56;;;;;;;0.20;0.20;;;22.50;53.50;;;;;;4899227;29;20207;-75
2021/04/01 14:16:23;;;;;;;0.20;0.20;;;22.20;54.00;;;;;;4898953;29;20233;-76
2021/04/01 14:18:50;;;;;;;0.20;0.20;;;22.10;54.30;;;;;;4898380;29;20203;-76
2021/04/01 14:21:20;;;;;;;0.20;0.20;;;22.10;54.50;;;;;;4899383;29;20227;-73
2021/04/01 14:23:49;;;;;;;0.20;0.20;;;22.00;54.00;;;;;;4898666;29;20656;-76
2021/04/01 14:26:21;;;;;;;0.20;0.20;;;21.90;53.70;;;;;;4898635;29;20212;-75
2021/04/01 14:28:49;;;;;;;0.20;0.20;;;22.20;54.60;;;;;;4898555;29;20227;-76
2021/04/01 14:31:17;;;;;;;0.20;0.20;;;22.40;54.10;;;;;;4898545;29;20282;-74
2021/04/01 14:33:46;;;;;;;0.20;0.20;;;22.50;54.20;;;;;;4898422;29;20211;-74
2021/04/01 14:36:25;;;;;;;0.20;0.20;;;22.30;54.30;;;;;;4898537;29;20203;-75
2021/04/01 14:38:52;;;;;;;0.20;0.20;;;22.20;54.40;;;;;;4898513;29;20713;-74
2021/04/01 14:41:26;;;;;;;0.20;0.20;;;22.10;54.90;;;;;;4898763;29;20662;-74
2021/04/01 14:44:02;;;;;;;0.20;0.20;;;21.60;53.80;;;;;;4898362;29;20562;-74
2021/04/01 14:46:29;;;;;;;0.20;0.20;;;21.80;54.90;;;;;;4898309;29;20266;-74
2021/04/01 14:48:57;;;;;;;0.20;0.20;;;21.70;55.20;;;;;;4898407;29;20239;-74
2021/04/01 14:51:25;;;;;;;0.20;0.20;;;21.40;55.70;;;;;;4898283;29;20629;-74
2021/04/01 14:53:54;;;;;;;0.20;0.20;;;21.20;55.80;;;;;;4898228;29;20259;-74
2021/04/01 14:56:21;;;;;;;0.20;0.20;;;21.30;56.30;;;;;;4897865;29;20211;-75
2021/04/01 14:58:49;;;;;;;0.20;0.20;;;21.40;56.30;;;;;;4898258;29;20203;-75
2021/04/01 15:01:20;;;;;;;0.20;0.20;;;21.40;56.40;;;;;;4898376;29;20238;-75
2021/04/01 15:03:49;;;;;;;0.30;0.30;;;21.10;56.80;;;;;;4898149;29;20629;-75
2021/04/01 15:06:16;;;;;;;0.30;0.30;;;21.00;58.00;;;;;;4897908;29;20263;-74
2021/04/01 15:08:43;;;;;;;0.20;0.20;;;20.70;58.60;;;;;;4897925;29;20223;-74
2021/04/01 15:11:11;;;;;;;0.20;0.20;;;;;;;;;;4897676;29;20243;-74
2021/04/01 15:13:38;;;;;;;0.20;0.20;;;;;;;;;;4897858;29;20215;-74
2021/04/01 15:16:06;;;;;;;0.20;0.20;;;;;;;;;;4897799;29;20208;-74
2021/04/01 15:18:33;;;;;;;0.20;0.20;;;;;;;;;;4897936;29;20208;-74
2021/04/01 15:21:02;;;;;;;0.20;0.20;;;;;;;;;;4897812;29;20234;-75
2021/04/01 15:23:29;;;;;;;0.20;0.20;;;20.60;94.10;;;;;;4897825;29;20263;-76
2021/04/01 15:25:56;;;;;;;0.22;0.22;;;20.40;60.20;;;;;;4897603;29;20631;-75
2021/04/01 15:28:23;;;;;;;0.20;0.20;;;;;;;;;;4897584;29;20282;-75
2021/04/01 15:30:51;;;;;;;0.30;0.30;;;;;;;;;;4896853;29;20261;-75
2021/04/01 15:33:18;;;;;;;0.28;0.28;;;20.10;99.90;;;;;;4897465;29;20215;-75
2021/04/01 15:35:45;;;;;;;0.20;0.20;;;20.10;96.80;;;;;;4897104;29;20572;-75
2021/04/01 15:38:13;;;;;;;0.20;0.20;;;19.90;95.70;;;;;;4897424;29;20584;-75
2021/04/01 15:40:42;;;;;;;0.20;0.20;;;;;;;;;;4897443;29;20232;-76
2021/04/01 15:43:10;;;;;;;0.20;0.20;;;;;;;;;;4897494;29;20211;-75
2021/04/01 15:45:37;;;;;;;0.30;0.30;;;;;;;;;;4897198;29;20211;-75
2021/04/01 15:48:06;;;;;;;0.20;0.20;;;;;;;;;;4897320;29;20303;-75
2021/04/01 15:50:35;;;;;;;0.20;0.20;;;;;;;;;;4896875;29;20286;-75
2021/04/01 15:53:03;;;;;;;0.20;0.20;;;;;;;;;;4897406;29;20294;-75
2021/04/01 15:55:31;;;;;;;0.30;0.30;;;;;;;;;;4897072;29;20560;-75
2021/04/01 15:58:00;;;;;;;0.20;0.20;;;;;;;;;;4897296;29;20251;-75
2021/04/01 16:00:28;;;;;;;0.20;0.20;;;;;;;;;;4896834;29;20223;-75
2021/04/01 16:02:55;;;;;;;0.30;0.30;;;;;;;;;;4897528;29;20203;-75
2021/04/01 16:05:23;;;;;;;0.20;0.20;;;;;;;;;;4896851;29;20306;-76
2021/04/01 16:07:51;;;;;;;0.30;0.30;;;;;;;;;;4897185;29;20223;-76
2021/04/01 16:10:19;;;;;;;0.20;0.20;;;;;;;;;;4896785;29;20207;-76
2021/04/01 16:12:47;;;;;;;0.22;0.22;;;;;;;;;;4897125;29;20382;-75
2021/04/01 16:15:14;;;;;;;0.20;0.20;;;18.20;74.20;;;;;;4898883;29;20215;-74
2021/04/01 16:17:41;;;;;;;0.30;0.30;;;18.80;75.80;;;;;;4897705;29;20207;-75
2021/04/01 16:20:12;;;;;;;0.30;0.30;;;18.60;75.50;;;;;;4901286;29;20669;-74
2021/04/01 16:22:39;;;;;;;0.30;0.30;;;18.40;75.90;;;;;;4901027;29;20259;-74
2021/04/01 16:25:07;;;;;;;0.30;0.30;;;18.10;95.20;;;;;;4896980;29;20207;-74
2021/04/01 16:27:34;;;;;;;0.30;0.30;;;18.10;90.90;;;;;;4896693;29;20211;-74
2021/04/01 16:30:03;;;;;;;0.30;0.30;;;18.00;87.10;;;;;;4896418;29;20211;-74
2021/04/01 16:32:30;;;;;;;0.30;0.30;;;17.90;91.20;;;;;;4896756;29;20760;-74
2021/04/01 16:35:00;;;;;;;0.40;0.40;;;17.10;90.50;;;;;;4896463;29;20211;-74
2021/04/01 16:37:32;;;;;;;0.30;0.30;;;17.30;86.40;;;;;;4896733;29;20275;-74
2021/04/01 16:39:59;;;;;;;0.30;0.30;;;17.10;87.80;;;;;;4896591;29;20211;-74
2021/04/01 16:42:26;;;;;;;0.40;0.40;;;16.90;88.00;;;;;;4896526;29;20224;-74
2021/04/01 16:44:53;;;;;;;0.30;0.30;;;16.90;88.80;;;;;;4896094;29;20263;-74
2021/04/01 16:47:21;;;;;;;0.30;0.30;;;16.80;87.90;;;;;;4896865;29;20207;-74
2021/04/01 16:49:48;;;;;;;0.30;0.30;;;16.70;86.60;;;;;;4896519;29;20211;-73
2021/04/01 16:52:18;;;;;;;0.40;0.40;;;16.80;87.00;;;;;;4896457;29;20717;-75
2021/04/01 16:54:49;;;;;;;0.40;0.40;;;16.70;87.90;;;;;;4896154;29;20211;-75
2021/04/01 16:57:19;;;;;;;0.40;0.40;;;16.80;87.90;;;;;;4896711;29;20211;-74
2021/04/01 16:59:48;;;;;;;0.30;0.30;;;16.80;86.30;;;;;;4896596;29;20662;-74
2021/04/01 17:02:16;;;;;;;0.40;0.40;;;16.90;85.50;;;;;;4896334;29;20231;-74
2021/04/01 17:04:44;;;;;;;0.30;0.30;;;16.90;84.00;;;;;;4896104;29;20207;-74
2021/04/01 17:07:12;;;;;;;0.40;0.40;;;16.90;84.80;;;;;;4896225;29;20258;-74
2021/04/01 17:09:39;;;;;;;0.30;0.30;;;17.10;85.90;;;;;;4895947;29;20669;-74
2021/04/01 17:12:07;;;;;;;0.40;0.40;;;17.10;86.40;;;;;;4895957;29;20314;-74
2021/04/01 17:14:35;;;;;;;0.30;0.30;;;17.10;85.50;;;;;;4896037;29;20259;-74
2021/04/01 17:17:03;;;;;;;0.30;0.30;;;17.10;84.80;;;;;;4895964;29;20207;-74
2021/04/01 17:19:30;;;;;;;0.30;0.30;;;17.10;86.60;;;;;;4896185;29;20287;-75
2021/04/01 17:21:58;;;;;;;0.30;0.30;;;17.10;84.70;;;;;;4895886;29;20282;-74
2021/04/01 17:24:24;;;;;;;0.30;0.30;;;17.10;85.60;;;;;;4895970;29;20239;-74
2021/04/01 17:26:51;;;;;;;0.30;0.30;;;17.10;84.90;;;;;;4895879;29;20700;-73
2021/04/01 17:29:18;;;;;;;0.22;0.22;;;17.10;85.60;;;;;;4896058;29;20231;-74
2021/04/01 17:31:47;;;;;;;0.30;0.30;;;17.00;84.50;;;;;;4896190;29;20655;-73
2021/04/01 17:34:14;;;;;;;0.40;0.40;;;17.00;83.50;;;;;;4895956;29;20235;-74
2021/04/01 17:36:41;;;;;;;0.30;0.30;;;16.90;83.40;;;;;;4895539;29;20207;-73
2021/04/01 17:39:09;;;;;;;0.40;0.40;;;16.80;81.80;;;;;;4895806;29;20207;-74
2021/04/01 17:41:41;;;;;;;0.40;0.40;;;16.80;78.40;;;;;;4896042;29;20318;-74
2021/04/01 17:44:07;;;;;;;0.30;0.30;;;16.60;78.80;;;;;;4896025;29;20207;-74
2021/04/01 17:46:34;;;;;;;0.40;0.40;;;16.50;78.40;;;;;;4895669;29;20211;-74
2021/04/01 17:49:01;;;;;;;0.40;0.40;;;16.50;79.20;;;;;;4895695;29;20588;-73
2021/04/01 17:51:28;;;;;;;0.30;0.30;;;16.40;79.00;;;;;;4895514;29;20463;-74
2021/04/01 17:53:55;;;;;;;0.40;0.40;;;16.30;79.50;;;;;;4897567;29;20215;-74
2021/04/01 17:56:23;;;;;;;0.45;0.45;;;16.30;79.50;;;;;;4899141;29;20207;-74
2021/04/01 17:58:52;;;;;;;0.40;0.40;;;16.20;80.10;;;;;;4899801;29;20206;-74
2021/04/01 18:01:23;;;;;;;0.40;0.40;;;17.00;81.10;;;;;;4899305;29;20231;-74
2021/04/01 18:26:02;;;;;;;0.60;0.60;;;14.90;88.80;;;;;;4898472;29;20207;-73
2021/04/01 18:28:38;;;;;;;0.50;0.50;;;14.80;90.00;;;;;;4898758;29;20271;-74
2021/04/01 18:31:13;;;;;;;0.40;0.40;;;14.60;90.40;;;;;;4898426;29;20713;-74
2021/04/01 18:33:42;;;;;;;0.40;0.40;;;14.50;90.70;;;;;;4898933;29;20254;-74
2021/04/01 18:36:18;;;;;;;0.40;0.40;;;14.40;91.00;;;;;;4898588;29;20207;-74